sensor_id;sensor_type;location;lat;lon;timestamp;P1;durP1;ratioP1;P2;durP2;ratioP2
22318;SDS011;11327;52.334;9.506;2023-05-10T00:01:52;3.27;;;2.83;;
22318;SDS011;11327;52.334;9.506;2023-05-10T00:05:13;3.12;;;2.60;;
22318;SDS011;11327;52.334;9.506;2023-05-10T00:08:33;3.72;;;3.10;;
22318;SDS011;11327;52.334;9.506;2023-05-10T00:11:54;4.12;;;3.00;;
22318;SDS011;11327;52.334;9.506;2023-05-10T00:15:15;5.20;;;2.70;;
22318;SDS011;11327;52.334;9.506;2023-05-10T00:18:36;3.77;;;2.50;;
22318;SDS011;11327;52.334;9.506;2023-05-10T00:21:56;5.05;;;2.77;;
22318;SDS011;11327;52.334;9.506;2023-05-10T00:25:17;4.45;;;3.17;;
22318;SDS011;11327;52.334;9.506;2023-05-10T00:28:38;3.85;;;2.92;;
22318;SDS011;11327;52.334;9.506;2023-05-10T00:31:59;4.15;;;3.08;;
22318;SDS011;11327;52.334;9.506;2023-05-10T00:35:19;5.80;;;2.62;;
22318;SDS011;11327;52.334;9.506;2023-05-10T00:38:41;4.90;;;2.60;;
22318;SDS011;11327;52.334;9.506;2023-05-10T00:42:02;3.85;;;2.72;;
22318;SDS011;11327;52.334;9.506;2023-05-10T00:45:24;4.33;;;2.90;;
22318;SDS011;11327;52.334;9.506;2023-05-10T00:48:45;3.45;;;2.62;;
22318;SDS011;11327;52.334;9.506;2023-05-10T00:52:06;4.85;;;2.87;;
22318;SDS011;11327;52.334;9.506;2023-05-10T00:55:26;4.47;;;3.02;;
22318;SDS011;11327;52.334;9.506;2023-05-10T00:58:47;3.65;;;2.70;;
22318;SDS011;11327;52.334;9.506;2023-05-10T01:02:08;3.20;;;2.85;;
22318;SDS011;11327;52.334;9.506;2023-05-10T01:05:29;5.10;;;3.10;;
22318;SDS011;11327;52.334;9.506;2023-05-10T01:08:50;4.37;;;3.20;;
22318;SDS011;11327;52.334;9.506;2023-05-10T01:12:11;6.10;;;2.90;;
22318;SDS011;11327;52.334;9.506;2023-05-10T01:15:32;5.03;;;2.92;;
22318;SDS011;11327;52.334;9.506;2023-05-10T01:18:53;3.98;;;2.90;;
22318;SDS011;11327;52.334;9.506;2023-05-10T01:33:27;4.55;;;3.60;;
22318;SDS011;11327;52.334;9.506;2023-05-10T01:37:01;4.22;;;3.12;;
22318;SDS011;11327;52.334;9.506;2023-05-10T01:40:35;4.65;;;3.27;;
22318;SDS011;11327;52.334;9.506;2023-05-10T01:44:16;5.03;;;3.33;;
22318;SDS011;11327;52.334;9.506;2023-05-10T01:51:06;3.98;;;3.25;;
22318;SDS011;11327;52.334;9.506;2023-05-10T01:54:29;4.37;;;3.50;;
22318;SDS011;11327;52.334;9.506;2023-05-10T01:57:52;4.40;;;3.30;;
22318;SDS011;11327;52.334;9.506;2023-05-10T02:01:16;5.12;;;3.12;;
22318;SDS011;11327;52.334;9.506;2023-05-10T02:04:39;4.83;;;3.20;;
22318;SDS011;11327;52.334;9.506;2023-05-10T02:08:01;4.90;;;3.47;;
22318;SDS011;11327;52.334;9.506;2023-05-10T02:11:25;4.60;;;3.30;;
22318;SDS011;11327;52.334;9.506;2023-05-10T02:14:48;5.05;;;3.27;;
22318;SDS011;11327;52.334;9.506;2023-05-10T02:18:13;3.60;;;3.30;;
22318;SDS011;11327;52.334;9.506;2023-05-10T02:21:34;5.85;;;3.40;;
22318;SDS011;11327;52.334;9.506;2023-05-10T02:24:56;3.95;;;3.47;;
22318;SDS011;11327;52.334;9.506;2023-05-10T02:28:18;5.50;;;3.37;;
22318;SDS011;11327;52.334;9.506;2023-05-10T02:31:41;5.25;;;3.40;;
22318;SDS011;11327;52.334;9.506;2023-05-10T02:35:03;5.70;;;3.50;;
22318;SDS011;11327;52.334;9.506;2023-05-10T02:38:25;5.58;;;4.00;;
22318;SDS011;11327;52.334;9.506;2023-05-10T02:41:48;5.47;;;3.90;;
22318;SDS011;11327;52.334;9.506;2023-05-10T02:45:11;5.42;;;3.77;;
22318;SDS011;11327;52.334;9.506;2023-05-10T02:48:34;4.25;;;3.50;;
22318;SDS011;11327;52.334;9.506;2023-05-10T02:51:56;4.75;;;3.70;;
22318;SDS011;11327;52.334;9.506;2023-05-10T02:55:21;5.67;;;4.00;;
22318;SDS011;11327;52.334;9.506;2023-05-10T02:58:44;5.08;;;3.70;;
22318;SDS011;11327;52.334;9.506;2023-05-10T03:02:05;5.72;;;4.35;;
22318;SDS011;11327;52.334;9.506;2023-05-10T03:05:26;4.90;;;4.00;;
22318;SDS011;11327;52.334;9.506;2023-05-10T03:08:47;6.70;;;4.30;;
22318;SDS011;11327;52.334;9.506;2023-05-10T03:12:13;5.15;;;4.33;;
22318;SDS011;11327;52.334;9.506;2023-05-10T03:16:07;5.83;;;4.40;;
22318;SDS011;11327;52.334;9.506;2023-05-10T03:19:32;5.05;;;4.22;;
22318;SDS011;11327;52.334;9.506;2023-05-10T03:22:55;7.65;;;4.47;;
22318;SDS011;11327;52.334;9.506;2023-05-10T03:26:26;4.87;;;4.20;;
22318;SDS011;11327;52.334;9.506;2023-05-10T03:29:48;5.90;;;4.80;;
22318;SDS011;11327;52.334;9.506;2023-05-10T03:33:09;6.25;;;4.90;;
22318;SDS011;11327;52.334;9.506;2023-05-10T03:36:31;5.20;;;4.60;;
22318;SDS011;11327;52.334;9.506;2023-05-10T03:39:52;6.22;;;4.60;;
22318;SDS011;11327;52.334;9.506;2023-05-10T03:43:12;6.78;;;4.70;;
22318;SDS011;11327;52.334;9.506;2023-05-10T03:46:33;6.30;;;4.58;;
22318;SDS011;11327;52.334;9.506;2023-05-10T03:49:54;5.78;;;4.58;;
22318;SDS011;11327;52.334;9.506;2023-05-10T03:53:15;5.15;;;4.33;;
22318;SDS011;11327;52.334;9.506;2023-05-10T03:56:36;6.12;;;5.20;;
22318;SDS011;11327;52.334;9.506;2023-05-10T03:59:56;6.10;;;4.95;;
22318;SDS011;11327;52.334;9.506;2023-05-10T04:03:17;6.80;;;5.15;;
22318;SDS011;11327;52.334;9.506;2023-05-10T04:06:38;5.62;;;4.58;;
22318;SDS011;11327;52.334;9.506;2023-05-10T04:09:59;6.40;;;4.70;;
22318;SDS011;11327;52.334;9.506;2023-05-10T04:13:19;6.50;;;5.10;;
22318;SDS011;11327;52.334;9.506;2023-05-10T04:16:41;5.85;;;4.92;;
22318;SDS011;11327;52.334;9.506;2023-05-10T04:20:02;6.12;;;4.78;;
22318;SDS011;11327;52.334;9.506;2023-05-10T04:23:24;6.40;;;4.85;;
22318;SDS011;11327;52.334;9.506;2023-05-10T04:26:45;6.78;;;5.50;;
22318;SDS011;11327;52.334;9.506;2023-05-10T04:30:06;6.62;;;4.97;;
22318;SDS011;11327;52.334;9.506;2023-05-10T04:33:27;6.67;;;5.00;;
22318;SDS011;11327;52.334;9.506;2023-05-10T04:36:48;6.00;;;5.40;;
22318;SDS011;11327;52.334;9.506;2023-05-10T04:40:09;6.65;;;5.03;;
22318;SDS011;11327;52.334;9.506;2023-05-10T04:43:30;5.67;;;5.05;;
22318;SDS011;11327;52.334;9.506;2023-05-10T04:46:51;5.65;;;5.00;;
22318;SDS011;11327;52.334;9.506;2023-05-10T04:50:12;6.10;;;5.20;;
22318;SDS011;11327;52.334;9.506;2023-05-10T04:53:32;7.50;;;5.58;;
22318;SDS011;11327;52.334;9.506;2023-05-10T04:56:54;8.80;;;5.85;;
22318;SDS011;11327;52.334;9.506;2023-05-10T05:00:15;7.60;;;6.10;;
22318;SDS011;11327;52.334;9.506;2023-05-10T05:03:36;8.05;;;5.83;;
22318;SDS011;11327;52.334;9.506;2023-05-10T05:06:57;8.58;;;6.15;;
22318;SDS011;11327;52.334;9.506;2023-05-10T05:10:18;8.83;;;6.65;;
22318;SDS011;11327;52.334;9.506;2023-05-10T05:13:38;6.78;;;6.00;;
22318;SDS011;11327;52.334;9.506;2023-05-10T05:16:59;6.95;;;5.90;;
22318;SDS011;11327;52.334;9.506;2023-05-10T05:20:20;7.47;;;6.17;;
22318;SDS011;11327;52.334;9.506;2023-05-10T05:23:41;7.95;;;6.35;;
22318;SDS011;11327;52.334;9.506;2023-05-10T05:27:04;7.95;;;6.83;;
22318;SDS011;11327;52.334;9.506;2023-05-10T05:30:25;6.90;;;6.20;;
22318;SDS011;11327;52.334;9.506;2023-05-10T05:33:45;7.22;;;6.42;;
22318;SDS011;11327;52.334;9.506;2023-05-10T05:37:06;7.40;;;5.95;;
22318;SDS011;11327;52.334;9.506;2023-05-10T05:40:27;8.60;;;5.97;;
22318;SDS011;11327;52.334;9.506;2023-05-10T05:43:47;8.05;;;6.70;;
22318;SDS011;11327;52.334;9.506;2023-05-10T05:47:08;8.33;;;6.80;;
22318;SDS011;11327;52.334;9.506;2023-05-10T05:50:29;8.83;;;6.92;;
22318;SDS011;11327;52.334;9.506;2023-05-10T05:53:50;8.45;;;7.20;;
22318;SDS011;11327;52.334;9.506;2023-05-10T05:57:11;14.80;;;8.18;;
22318;SDS011;11327;52.334;9.506;2023-05-10T06:00:31;9.78;;;7.80;;
22318;SDS011;11327;52.334;9.506;2023-05-10T06:03:52;10.48;;;7.90;;
22318;SDS011;11327;52.334;9.506;2023-05-10T06:07:13;8.58;;;7.47;;
22318;SDS011;11327;52.334;9.506;2023-05-10T06:10:34;9.48;;;7.10;;
22318;SDS011;11327;52.334;9.506;2023-05-10T06:13:54;9.13;;;7.65;;
22318;SDS011;11327;52.334;9.506;2023-05-10T06:17:15;9.70;;;7.20;;
22318;SDS011;11327;52.334;9.506;2023-05-10T06:20:36;14.23;;;9.13;;
22318;SDS011;11327;52.334;9.506;2023-05-10T06:23:57;8.38;;;7.58;;
22318;SDS011;11327;52.334;9.506;2023-05-10T06:27:17;8.80;;;7.35;;
22318;SDS011;11327;52.334;9.506;2023-05-10T06:30:38;9.53;;;7.58;;
22318;SDS011;11327;52.334;9.506;2023-05-10T06:33:59;9.65;;;7.70;;
22318;SDS011;11327;52.334;9.506;2023-05-10T06:37:20;10.00;;;8.05;;
22318;SDS011;11327;52.334;9.506;2023-05-10T06:40:41;10.23;;;7.53;;
22318;SDS011;11327;52.334;9.506;2023-05-10T06:44:02;10.18;;;7.37;;
22318;SDS011;11327;52.334;9.506;2023-05-10T06:47:23;8.80;;;7.90;;
22318;SDS011;11327;52.334;9.506;2023-05-10T06:50:44;9.65;;;7.87;;
22318;SDS011;11327;52.334;9.506;2023-05-10T06:54:05;8.98;;;7.87;;
22318;SDS011;11327;52.334;9.506;2023-05-10T06:57:26;10.13;;;7.95;;
22318;SDS011;11327;52.334;9.506;2023-05-10T07:00:46;10.38;;;7.95;;
22318;SDS011;11327;52.334;9.506;2023-05-10T07:04:07;8.08;;;7.28;;
22318;SDS011;11327;52.334;9.506;2023-05-10T07:07:28;7.20;;;5.97;;
22318;SDS011;11327;52.334;9.506;2023-05-10T07:10:49;2.98;;;2.60;;
22318;SDS011;11327;52.334;9.506;2023-05-10T07:14:10;2.10;;;1.62;;
22318;SDS011;11327;52.334;9.506;2023-05-10T07:17:30;2.70;;;1.60;;
22318;SDS011;11327;52.334;9.506;2023-05-10T07:20:51;2.70;;;1.75;;
22318;SDS011;11327;52.334;9.506;2023-05-10T07:24:12;1.65;;;1.27;;
22318;SDS011;11327;52.334;9.506;2023-05-10T07:27:33;1.20;;;1.00;;
22318;SDS011;11327;52.334;9.506;2023-05-10T07:30:53;1.82;;;0.90;;
22318;SDS011;11327;52.334;9.506;2023-05-10T07:34:14;1.37;;;0.90;;
22318;SDS011;11327;52.334;9.506;2023-05-10T07:37:35;1.20;;;1.10;;
22318;SDS011;11327;52.334;9.506;2023-05-10T07:40:56;2.50;;;1.82;;
22318;SDS011;11327;52.334;9.506;2023-05-10T07:44:17;2.80;;;2.12;;
22318;SDS011;11327;52.334;9.506;2023-05-10T07:47:41;2.33;;;2.02;;
22318;SDS011;11327;52.334;9.506;2023-05-10T07:51:01;2.52;;;2.08;;
22318;SDS011;11327;52.334;9.506;2023-05-10T07:54:22;2.92;;;2.62;;
22318;SDS011;11327;52.334;9.506;2023-05-10T07:57:43;3.77;;;3.37;;
22318;SDS011;11327;52.334;9.506;2023-05-10T08:01:04;4.00;;;3.60;;
22318;SDS011;11327;52.334;9.506;2023-05-10T08:04:25;4.58;;;4.12;;
22318;SDS011;11327;52.334;9.506;2023-05-10T08:07:46;5.00;;;4.33;;
22318;SDS011;11327;52.334;9.506;2023-05-10T08:11:06;3.70;;;3.30;;
22318;SDS011;11327;52.334;9.506;2023-05-10T08:14:28;3.15;;;2.85;;
22318;SDS011;11327;52.334;9.506;2023-05-10T08:17:49;3.22;;;2.50;;
22318;SDS011;11327;52.334;9.506;2023-05-10T08:21:10;3.00;;;2.42;;
22318;SDS011;11327;52.334;9.506;2023-05-10T08:24:31;3.00;;;2.55;;
22318;SDS011;11327;52.334;9.506;2023-05-10T08:27:52;3.98;;;3.50;;
22318;SDS011;11327;52.334;9.506;2023-05-10T08:31:13;4.50;;;2.90;;
22318;SDS011;11327;52.334;9.506;2023-05-10T08:34:34;2.80;;;2.42;;
22318;SDS011;11327;52.334;9.506;2023-05-10T08:37:55;2.62;;;2.40;;
22318;SDS011;11327;52.334;9.506;2023-05-10T08:41:15;2.40;;;2.10;;
22318;SDS011;11327;52.334;9.506;2023-05-10T08:44:37;4.55;;;2.60;;
22318;SDS011;11327;52.334;9.506;2023-05-10T08:47:57;4.08;;;2.80;;
22318;SDS011;11327;52.334;9.506;2023-05-10T08:51:24;3.70;;;2.92;;
22318;SDS011;11327;52.334;9.506;2023-05-10T08:54:48;4.90;;;3.35;;
22318;SDS011;11327;52.334;9.506;2023-05-10T08:58:09;4.95;;;3.70;;
22318;SDS011;11327;52.334;9.506;2023-05-10T09:01:30;4.40;;;2.85;;
22318;SDS011;11327;52.334;9.506;2023-05-10T09:04:52;3.55;;;3.00;;
22318;SDS011;11327;52.334;9.506;2023-05-10T09:08:13;5.22;;;2.98;;
22318;SDS011;11327;52.334;9.506;2023-05-10T09:11:36;3.35;;;3.00;;
22318;SDS011;11327;52.334;9.506;2023-05-10T09:14:57;4.17;;;3.27;;
22318;SDS011;11327;52.334;9.506;2023-05-10T09:18:20;4.83;;;3.30;;
22318;SDS011;11327;52.334;9.506;2023-05-10T09:21:41;4.30;;;3.25;;
22318;SDS011;11327;52.334;9.506;2023-05-10T09:28:31;4.70;;;3.40;;
22318;SDS011;11327;52.334;9.506;2023-05-10T09:31:54;4.85;;;3.60;;
22318;SDS011;11327;52.334;9.506;2023-05-10T09:35:16;3.98;;;3.33;;
22318;SDS011;11327;52.334;9.506;2023-05-10T09:38:48;5.30;;;4.00;;
22318;SDS011;11327;52.334;9.506;2023-05-10T09:42:11;4.00;;;3.60;;
22318;SDS011;11327;52.334;9.506;2023-05-10T09:45:34;5.65;;;3.90;;
22318;SDS011;11327;52.334;9.506;2023-05-10T09:48:55;4.67;;;3.42;;
22318;SDS011;11327;52.334;9.506;2023-05-10T09:52:16;3.62;;;3.10;;
22318;SDS011;11327;52.334;9.506;2023-05-10T09:59:07;5.72;;;3.65;;
22318;SDS011;11327;52.334;9.506;2023-05-10T10:02:30;7.17;;;4.40;;
22318;SDS011;11327;52.334;9.506;2023-05-10T10:05:52;4.65;;;4.15;;
22318;SDS011;11327;52.334;9.506;2023-05-10T10:09:13;5.90;;;3.70;;
22318;SDS011;11327;52.334;9.506;2023-05-10T10:12:34;5.50;;;3.90;;
22318;SDS011;11327;52.334;9.506;2023-05-10T10:15:55;6.67;;;4.85;;
22318;SDS011;11327;52.334;9.506;2023-05-10T10:19:17;4.62;;;3.95;;
22318;SDS011;11327;52.334;9.506;2023-05-10T10:22:39;5.83;;;4.40;;
22318;SDS011;11327;52.334;9.506;2023-05-10T10:26:00;6.53;;;4.53;;
22318;SDS011;11327;52.334;9.506;2023-05-10T10:36:28;6.45;;;4.65;;
22318;SDS011;11327;52.334;9.506;2023-05-10T10:39:49;6.00;;;5.00;;
22318;SDS011;11327;52.334;9.506;2023-05-10T10:43:23;10.58;;;4.92;;
22318;SDS011;11327;52.334;9.506;2023-05-10T10:50:45;5.95;;;4.15;;
22318;SDS011;11327;52.334;9.506;2023-05-10T10:54:10;5.92;;;4.30;;
22318;SDS011;11327;52.334;9.506;2023-05-10T11:04:41;6.12;;;4.40;;
22318;SDS011;11327;52.334;9.506;2023-05-10T11:08:08;6.40;;;5.10;;
22318;SDS011;11327;52.334;9.506;2023-05-10T11:11:31;8.38;;;5.35;;
22318;SDS011;11327;52.334;9.506;2023-05-10T11:14:52;8.73;;;5.92;;
22318;SDS011;11327;52.334;9.506;2023-05-10T11:18:20;7.62;;;5.65;;
22318;SDS011;11327;52.334;9.506;2023-05-10T11:25:10;7.55;;;5.45;;
22318;SDS011;11327;52.334;9.506;2023-05-10T11:28:30;7.05;;;5.55;;
22318;SDS011;11327;52.334;9.506;2023-05-10T11:31:52;7.80;;;6.03;;
22318;SDS011;11327;52.334;9.506;2023-05-10T11:35:15;6.83;;;5.70;;
22318;SDS011;11327;52.334;9.506;2023-05-10T11:38:36;8.83;;;5.60;;
22318;SDS011;11327;52.334;9.506;2023-05-10T11:41:57;6.50;;;5.28;;
22318;SDS011;11327;52.334;9.506;2023-05-10T11:45:18;7.53;;;5.53;;
22318;SDS011;11327;52.334;9.506;2023-05-10T11:48:39;8.18;;;6.50;;
22318;SDS011;11327;52.334;9.506;2023-05-10T11:52:08;9.30;;;5.95;;
22318;SDS011;11327;52.334;9.506;2023-05-10T11:55:27;7.27;;;5.33;;
22318;SDS011;11327;52.334;9.506;2023-05-10T11:58:57;8.28;;;6.17;;
22318;SDS011;11327;52.334;9.506;2023-05-10T12:02:18;7.72;;;6.15;;
22318;SDS011;11327;52.334;9.506;2023-05-10T12:05:39;9.05;;;6.80;;
22318;SDS011;11327;52.334;9.506;2023-05-10T12:09:05;9.10;;;7.10;;
22318;SDS011;11327;52.334;9.506;2023-05-10T12:12:35;8.98;;;6.10;;
22318;SDS011;11327;52.334;9.506;2023-05-10T12:16:16;7.92;;;5.25;;
22318;SDS011;11327;52.334;9.506;2023-05-10T12:19:45;6.58;;;4.90;;
22318;SDS011;11327;52.334;9.506;2023-05-10T12:23:08;7.12;;;5.37;;
22318;SDS011;11327;52.334;9.506;2023-05-10T12:26:30;8.75;;;5.78;;
22318;SDS011;11327;52.334;9.506;2023-05-10T12:29:51;5.90;;;4.65;;
22318;SDS011;11327;52.334;9.506;2023-05-10T12:33:12;8.70;;;5.67;;
22318;SDS011;11327;52.334;9.506;2023-05-10T12:36:38;8.45;;;5.90;;
22318;SDS011;11327;52.334;9.506;2023-05-10T12:39:58;8.18;;;5.20;;
22318;SDS011;11327;52.334;9.506;2023-05-10T12:43:19;8.03;;;6.35;;
22318;SDS011;11327;52.334;9.506;2023-05-10T12:46:40;10.90;;;7.65;;
22318;SDS011;11327;52.334;9.506;2023-05-10T12:50:01;7.85;;;6.40;;
22318;SDS011;11327;52.334;9.506;2023-05-10T12:53:22;9.35;;;6.33;;
22318;SDS011;11327;52.334;9.506;2023-05-10T12:56:43;5.95;;;5.17;;
22318;SDS011;11327;52.334;9.506;2023-05-10T13:00:04;7.53;;;4.90;;
22318;SDS011;11327;52.334;9.506;2023-05-10T13:03:26;7.90;;;5.85;;
22318;SDS011;11327;52.334;9.506;2023-05-10T13:06:46;8.40;;;6.55;;
22318;SDS011;11327;52.334;9.506;2023-05-10T13:10:07;8.00;;;5.97;;
22318;SDS011;11327;52.334;9.506;2023-05-10T13:13:28;7.67;;;6.12;;
22318;SDS011;11327;52.334;9.506;2023-05-10T13:16:49;7.17;;;5.78;;
22318;SDS011;11327;52.334;9.506;2023-05-10T13:20:10;9.65;;;6.65;;
22318;SDS011;11327;52.334;9.506;2023-05-10T13:23:31;8.43;;;6.58;;
22318;SDS011;11327;52.334;9.506;2023-05-10T13:26:52;9.00;;;6.30;;
22318;SDS011;11327;52.334;9.506;2023-05-10T13:30:12;9.70;;;6.80;;
22318;SDS011;11327;52.334;9.506;2023-05-10T13:33:33;8.33;;;5.95;;
22318;SDS011;11327;52.334;9.506;2023-05-10T13:36:54;8.40;;;6.10;;
22318;SDS011;11327;52.334;9.506;2023-05-10T13:40:16;8.28;;;6.80;;
22318;SDS011;11327;52.334;9.506;2023-05-10T13:43:37;8.00;;;6.03;;
22318;SDS011;11327;52.334;9.506;2023-05-10T13:46:57;8.15;;;5.85;;
22318;SDS011;11327;52.334;9.506;2023-05-10T13:50:18;7.35;;;6.05;;
22318;SDS011;11327;52.334;9.506;2023-05-10T13:53:39;9.90;;;7.15;;
22318;SDS011;11327;52.334;9.506;2023-05-10T13:57:00;10.75;;;7.80;;
22318;SDS011;11327;52.334;9.506;2023-05-10T14:00:20;10.72;;;8.25;;
22318;SDS011;11327;52.334;9.506;2023-05-10T14:03:41;11.68;;;9.13;;
22318;SDS011;11327;52.334;9.506;2023-05-10T14:07:02;12.18;;;8.60;;
22318;SDS011;11327;52.334;9.506;2023-05-10T14:10:23;14.78;;;9.90;;
22318;SDS011;11327;52.334;9.506;2023-05-10T14:13:43;10.58;;;8.95;;
22318;SDS011;11327;52.334;9.506;2023-05-10T14:17:04;11.35;;;8.05;;
22318;SDS011;11327;52.334;9.506;2023-05-10T14:20:25;11.85;;;9.15;;
22318;SDS011;11327;52.334;9.506;2023-05-10T14:23:46;13.18;;;9.05;;
22318;SDS011;11327;52.334;9.506;2023-05-10T14:27:06;12.65;;;9.28;;
22318;SDS011;11327;52.334;9.506;2023-05-10T14:30:27;10.98;;;7.90;;
22318;SDS011;11327;52.334;9.506;2023-05-10T14:33:48;10.45;;;7.80;;
22318;SDS011;11327;52.334;9.506;2023-05-10T14:37:09;12.88;;;10.00;;
22318;SDS011;11327;52.334;9.506;2023-05-10T14:40:31;16.70;;;11.20;;
22318;SDS011;11327;52.334;9.506;2023-05-10T14:43:52;15.35;;;11.83;;
22318;SDS011;11327;52.334;9.506;2023-05-10T14:47:13;16.50;;;11.83;;
22318;SDS011;11327;52.334;9.506;2023-05-10T14:50:34;18.62;;;12.28;;
22318;SDS011;11327;52.334;9.506;2023-05-10T14:53:55;16.85;;;12.18;;
22318;SDS011;11327;52.334;9.506;2023-05-10T14:57:16;15.15;;;11.40;;
22318;SDS011;11327;52.334;9.506;2023-05-10T15:00:37;17.87;;;12.43;;
22318;SDS011;11327;52.334;9.506;2023-05-10T15:03:58;18.45;;;12.10;;
22318;SDS011;11327;52.334;9.506;2023-05-10T15:07:18;15.00;;;10.82;;
22318;SDS011;11327;52.334;9.506;2023-05-10T15:10:39;14.75;;;9.95;;
22318;SDS011;11327;52.334;9.506;2023-05-10T15:14:00;15.20;;;10.25;;
22318;SDS011;11327;52.334;9.506;2023-05-10T15:17:22;14.35;;;10.45;;
22318;SDS011;11327;52.334;9.506;2023-05-10T15:20:42;15.88;;;10.93;;
22318;SDS011;11327;52.334;9.506;2023-05-10T15:24:03;15.40;;;9.85;;
22318;SDS011;11327;52.334;9.506;2023-05-10T15:27:26;15.83;;;10.93;;
22318;SDS011;11327;52.334;9.506;2023-05-10T15:30:46;12.88;;;9.75;;
22318;SDS011;11327;52.334;9.506;2023-05-10T15:34:07;14.93;;;8.95;;
22318;SDS011;11327;52.334;9.506;2023-05-10T15:37:28;12.93;;;8.33;;
22318;SDS011;11327;52.334;9.506;2023-05-10T15:40:49;12.90;;;8.70;;
22318;SDS011;11327;52.334;9.506;2023-05-10T15:44:09;11.78;;;9.23;;
22318;SDS011;11327;52.334;9.506;2023-05-10T15:47:31;10.88;;;7.55;;
22318;SDS011;11327;52.334;9.506;2023-05-10T15:50:53;11.05;;;7.72;;
22318;SDS011;11327;52.334;9.506;2023-05-10T15:54:13;8.60;;;6.62;;
22318;SDS011;11327;52.334;9.506;2023-05-10T15:57:34;8.55;;;5.95;;
22318;SDS011;11327;52.334;9.506;2023-05-10T16:00:55;9.50;;;6.58;;
22318;SDS011;11327;52.334;9.506;2023-05-10T16:04:16;9.33;;;6.65;;
22318;SDS011;11327;52.334;9.506;2023-05-10T16:07:37;9.98;;;6.37;;
22318;SDS011;11327;52.334;9.506;2023-05-10T16:10:59;10.10;;;7.05;;
22318;SDS011;11327;52.334;9.506;2023-05-10T16:14:20;10.38;;;7.92;;
22318;SDS011;11327;52.334;9.506;2023-05-10T16:17:42;8.48;;;5.83;;
22318;SDS011;11327;52.334;9.506;2023-05-10T16:21:03;9.00;;;6.53;;
22318;SDS011;11327;52.334;9.506;2023-05-10T16:24:24;15.43;;;10.72;;
22318;SDS011;11327;52.334;9.506;2023-05-10T16:27:45;18.32;;;13.40;;
22318;SDS011;11327;52.334;9.506;2023-05-10T16:31:06;28.38;;;20.72;;
22318;SDS011;11327;52.334;9.506;2023-05-10T16:34:27;26.30;;;18.57;;
22318;SDS011;11327;52.334;9.506;2023-05-10T16:37:47;26.73;;;18.85;;
22318;SDS011;11327;52.334;9.506;2023-05-10T16:41:09;23.10;;;15.48;;
22318;SDS011;11327;52.334;9.506;2023-05-10T16:44:30;18.82;;;13.22;;
22318;SDS011;11327;52.334;9.506;2023-05-10T16:47:50;20.88;;;13.88;;
22318;SDS011;11327;52.334;9.506;2023-05-10T16:51:12;17.95;;;12.15;;
22318;SDS011;11327;52.334;9.506;2023-05-10T16:54:33;18.95;;;11.50;;
22318;SDS011;11327;52.334;9.506;2023-05-10T16:57:54;15.28;;;10.20;;
22318;SDS011;11327;52.334;9.506;2023-05-10T17:01:19;14.13;;;9.93;;
22318;SDS011;11327;52.334;9.506;2023-05-10T17:04:41;11.28;;;8.15;;
22318;SDS011;11327;52.334;9.506;2023-05-10T17:08:02;11.20;;;6.53;;
22318;SDS011;11327;52.334;9.506;2023-05-10T17:11:23;7.72;;;5.65;;
22318;SDS011;11327;52.334;9.506;2023-05-10T17:14:43;6.00;;;4.28;;
22318;SDS011;11327;52.334;9.506;2023-05-10T17:18:04;7.05;;;4.95;;
22318;SDS011;11327;52.334;9.506;2023-05-10T17:21:26;6.55;;;4.85;;
22318;SDS011;11327;52.334;9.506;2023-05-10T17:24:46;6.92;;;5.05;;
22318;SDS011;11327;52.334;9.506;2023-05-10T17:28:07;6.70;;;4.80;;
22318;SDS011;11327;52.334;9.506;2023-05-10T17:31:28;5.62;;;3.90;;
22318;SDS011;11327;52.334;9.506;2023-05-10T17:34:49;4.67;;;3.80;;
22318;SDS011;11327;52.334;9.506;2023-05-10T17:38:09;5.65;;;4.47;;
22318;SDS011;11327;52.334;9.506;2023-05-10T17:41:30;5.90;;;4.12;;
22318;SDS011;11327;52.334;9.506;2023-05-10T17:44:51;5.83;;;4.45;;
22318;SDS011;11327;52.334;9.506;2023-05-10T17:48:12;7.12;;;4.30;;
22318;SDS011;11327;52.334;9.506;2023-05-10T17:51:32;5.50;;;3.77;;
22318;SDS011;11327;52.334;9.506;2023-05-10T17:54:53;4.83;;;3.95;;
22318;SDS011;11327;52.334;9.506;2023-05-10T17:58:14;6.08;;;4.37;;
22318;SDS011;11327;52.334;9.506;2023-05-10T18:01:35;5.10;;;4.10;;
22318;SDS011;11327;52.334;9.506;2023-05-10T18:04:55;5.28;;;4.55;;
22318;SDS011;11327;52.334;9.506;2023-05-10T18:08:17;6.50;;;4.53;;
22318;SDS011;11327;52.334;9.506;2023-05-10T18:11:39;5.87;;;3.98;;
22318;SDS011;11327;52.334;9.506;2023-05-10T18:15:00;4.92;;;4.33;;
22318;SDS011;11327;52.334;9.506;2023-05-10T18:18:21;6.05;;;4.15;;
22318;SDS011;11327;52.334;9.506;2023-05-10T18:21:42;7.60;;;3.85;;
22318;SDS011;11327;52.334;9.506;2023-05-10T18:25:03;7.50;;;4.20;;
22318;SDS011;11327;52.334;9.506;2023-05-10T18:28:24;5.62;;;4.70;;
22318;SDS011;11327;52.334;9.506;2023-05-10T18:31:44;6.10;;;4.03;;
22318;SDS011;11327;52.334;9.506;2023-05-10T18:35:05;5.80;;;4.10;;
22318;SDS011;11327;52.334;9.506;2023-05-10T18:38:27;6.00;;;4.25;;
22318;SDS011;11327;52.334;9.506;2023-05-10T18:41:48;5.03;;;4.05;;
22318;SDS011;11327;52.334;9.506;2023-05-10T18:45:09;5.08;;;4.03;;
22318;SDS011;11327;52.334;9.506;2023-05-10T18:48:30;5.10;;;3.98;;
22318;SDS011;11327;52.334;9.506;2023-05-10T18:51:51;5.72;;;4.20;;
22318;SDS011;11327;52.334;9.506;2023-05-10T18:55:12;6.50;;;4.90;;
22318;SDS011;11327;52.334;9.506;2023-05-10T18:58:33;6.03;;;4.45;;
22318;SDS011;11327;52.334;9.506;2023-05-10T19:01:55;8.23;;;5.53;;
22318;SDS011;11327;52.334;9.506;2023-05-10T19:05:15;7.83;;;5.80;;
22318;SDS011;11327;52.334;9.506;2023-05-10T19:08:36;6.85;;;5.28;;
22318;SDS011;11327;52.334;9.506;2023-05-10T19:11:57;8.80;;;6.40;;
22318;SDS011;11327;52.334;9.506;2023-05-10T19:15:18;7.03;;;5.65;;
22318;SDS011;11327;52.334;9.506;2023-05-10T19:18:38;8.68;;;6.80;;
22318;SDS011;11327;52.334;9.506;2023-05-10T19:21:59;10.85;;;7.42;;
22318;SDS011;11327;52.334;9.506;2023-05-10T19:25:20;9.40;;;6.60;;
22318;SDS011;11327;52.334;9.506;2023-05-10T19:28:41;10.78;;;7.45;;
22318;SDS011;11327;52.334;9.506;2023-05-10T19:32:01;10.50;;;8.10;;
22318;SDS011;11327;52.334;9.506;2023-05-10T19:35:22;10.45;;;7.72;;
22318;SDS011;11327;52.334;9.506;2023-05-10T19:38:43;9.70;;;7.90;;
22318;SDS011;11327;52.334;9.506;2023-05-10T19:42:04;12.65;;;8.53;;
22318;SDS011;11327;52.334;9.506;2023-05-10T19:45:25;10.98;;;8.05;;
22318;SDS011;11327;52.334;9.506;2023-05-10T19:48:46;10.72;;;8.23;;
22318;SDS011;11327;52.334;9.506;2023-05-10T19:52:06;9.18;;;7.37;;
22318;SDS011;11327;52.334;9.506;2023-05-10T19:55:29;10.25;;;7.80;;
22318;SDS011;11327;52.334;9.506;2023-05-10T19:58:51;8.68;;;7.65;;
22318;SDS011;11327;52.334;9.506;2023-05-10T20:02:11;10.10;;;8.25;;
22318;SDS011;11327;52.334;9.506;2023-05-10T20:05:32;9.45;;;7.15;;
22318;SDS011;11327;52.334;9.506;2023-05-10T20:08:53;7.97;;;6.42;;
22318;SDS011;11327;52.334;9.506;2023-05-10T20:12:14;9.70;;;7.15;;
22318;SDS011;11327;52.334;9.506;2023-05-10T20:15:34;9.60;;;7.70;;
22318;SDS011;11327;52.334;9.506;2023-05-10T20:18:55;8.90;;;7.53;;
22318;SDS011;11327;52.334;9.506;2023-05-10T20:22:16;8.85;;;7.62;;
22318;SDS011;11327;52.334;9.506;2023-05-10T20:25:36;8.08;;;6.92;;
22318;SDS011;11327;52.334;9.506;2023-05-10T20:28:57;7.00;;;6.30;;
22318;SDS011;11327;52.334;9.506;2023-05-10T20:32:18;9.73;;;7.12;;
22318;SDS011;11327;52.334;9.506;2023-05-10T20:35:39;7.35;;;6.62;;
22318;SDS011;11327;52.334;9.506;2023-05-10T20:38:59;8.83;;;7.92;;
22318;SDS011;11327;52.334;9.506;2023-05-10T20:42:20;11.73;;;8.63;;
22318;SDS011;11327;52.334;9.506;2023-05-10T20:45:41;10.63;;;8.63;;
22318;SDS011;11327;52.334;9.506;2023-05-10T20:49:02;11.33;;;8.93;;
22318;SDS011;11327;52.334;9.506;2023-05-10T20:52:23;13.05;;;8.93;;